Time;durP1;ratioP1;P1;durP2;ratioP2;P2;SDS_P1;SDS_P2;PMS_P1;PMS_P2;Temp;Humidity;BMP_temperature;BMP_pressure;BME280_temperature;BME280_humidity;BME280_pressure;Samples;Min_cycle;Max_cycle;Signal;HPM_P1;HPM_P2
2021/04/18 00:02:05;;;;;;;8.00;6.00;;;10.00;99.90;;;;;;6173288;22;20206;-68
2021/04/18 00:04:30;;;;;;;9.20;6.10;;;10.00;99.90;;;;;;6168425;22;20206;-68
2021/04/18 00:06:56;;;;;;;8.43;5.87;;;10.00;99.90;;;;;;6196359;22;20493;-68
2021/04/18 00:09:22;;;;;;;7.50;5.63;;;10.00;99.90;;;;;;6170723;22;20156;-67
2021/04/18 00:11:47;;;;;;;8.63;5.80;;;10.00;99.90;;;;;;6191693;22;20208;-67
2021/04/18 00:14:13;;;;;;;8.73;5.93;;;10.00;99.90;;;;;;6196936;22;20589;-68
2021/04/18 00:16:39;;;;;;;6.40;5.50;;;10.00;99.90;;;;;;6201598;22;20160;-68
2021/04/18 00:19:05;;;;;;;9.10;5.83;;;10.00;99.90;;;;;;6196263;22;20449;-68
2021/04/18 00:21:32;;;;;;;6.13;5.53;;;9.90;99.90;;;;;;6199299;22;20164;-68
2021/04/18 00:23:57;;;;;;;8.00;6.07;;;9.90;99.90;;;;;;6195738;22;20556;-67
2021/04/18 00:26:23;;;;;;;8.40;6.00;;;9.90;99.90;;;;;;6194696;22;20577;-68
2021/04/18 00:28:49;;;;;;;9.30;6.20;;;10.00;99.90;;;;;;6194828;22;20199;-69
2021/04/18 00:31:14;;;;;;;6.50;5.40;;;10.00;99.90;;;;;;6190437;22;20217;-68
2021/04/18 00:33:40;;;;;;;7.70;5.40;;;9.90;99.90;;;;;;6194963;22;20306;-67
2021/04/18 00:36:06;;;;;;;7.73;6.80;;;9.90;99.90;;;;;;6167924;22;20564;-68
2021/04/18 00:38:33;;;;;;;7.33;6.03;;;9.90;99.90;;;;;;6166140;23;20216;-69
2021/04/18 00:40:58;;;;;;;9.20;6.40;;;9.90;99.90;;;;;;6169290;22;20934;-68
2021/04/18 00:43:24;;;;;;;11.90;7.40;;;9.90;99.90;;;;;;6165817;22;20583;-67
2021/04/18 00:45:52;;;;;;;7.10;5.73;;;9.90;99.90;;;;;;6189465;22;20282;-71
2021/04/18 00:48:17;;;;;;;8.07;6.57;;;9.90;99.90;;;;;;6209431;23;20589;-71
2021/04/18 00:50:43;;;;;;;9.17;6.00;;;9.90;99.90;;;;;;6214620;22;20619;-66
2021/04/18 00:53:09;;;;;;;10.10;6.47;;;9.80;99.90;;;;;;6194111;22;20211;-66
2021/04/18 00:55:38;;;;;;;9.80;6.83;;;9.80;99.90;;;;;;6188480;22;20376;-68
2021/04/18 00:58:06;;;;;;;8.10;6.47;;;9.80;99.90;;;;;;6162649;23;21122;-68
2021/04/18 01:00:32;;;;;;;7.13;6.43;;;9.80;99.90;;;;;;6195510;23;20563;-68
2021/04/18 01:02:59;;;;;;;7.70;5.80;;;9.80;99.90;;;;;;6164666;22;20645;-68
2021/04/18 01:05:26;;;;;;;11.03;6.20;;;9.80;99.90;;;;;;6192261;22;20591;-68
2021/04/18 01:07:51;;;;;;;7.77;5.70;;;9.80;99.90;;;;;;6195364;23;20598;-68
2021/04/18 01:10:18;;;;;;;8.17;5.47;;;9.80;99.90;;;;;;6193279;22;20566;-68
2021/04/18 01:12:44;;;;;;;8.50;5.57;;;9.80;99.90;;;;;;6196395;23;20520;-66
2021/04/18 01:15:11;;;;;;;10.93;6.50;;;9.80;99.90;;;;;;6169623;22;20579;-68
2021/04/18 01:17:37;;;;;;;10.80;7.10;;;9.80;99.90;;;;;;6197707;23;20698;-68
2021/04/18 01:20:09;;;;;;;6.50;5.90;;;9.80;99.90;;;;;;6195455;23;20590;-68
2021/04/18 01:22:35;;;;;;;8.37;6.30;;;9.70;99.90;;;;;;6190495;22;20579;-68
2021/04/18 01:25:00;;;;;;;7.10;6.30;;;9.80;99.90;;;;;;6199461;22;20594;-67
2021/04/18 01:27:26;;;;;;;12.23;6.87;;;9.80;99.90;;;;;;6197996;23;20176;-68
2021/04/18 01:29:52;;;;;;;6.70;6.00;;;9.70;99.90;;;;;;6169734;22;20264;-68
2021/04/18 01:32:21;;;;;;;7.87;6.10;;;9.80;99.90;;;;;;6194882;22;20177;-68
2021/04/18 01:34:48;;;;;;;8.03;6.17;;;9.70;99.90;;;;;;6190756;22;20496;-68
2021/04/18 01:37:14;;;;;;;6.93;6.10;;;9.70;99.90;;;;;;6197143;22;20658;-68
2021/04/18 01:39:40;;;;;;;7.43;6.23;;;9.70;99.90;;;;;;6192143;23;20547;-67
2021/04/18 01:42:07;;;;;;;6.83;5.60;;;9.60;99.90;;;;;;6194300;23;20663;-68
2021/04/18 01:44:35;;;;;;;6.63;5.57;;;9.60;99.90;;;;;;6193958;22;20663;-68
2021/04/18 01:47:01;;;;;;;7.47;5.87;;;9.60;99.90;;;;;;6197852;23;20556;-69
2021/04/18 01:49:26;;;;;;;8.13;6.20;;;9.60;99.90;;;;;;6196847;22;20593;-68
2021/04/18 01:51:52;;;;;;;9.50;6.40;;;9.60;99.90;;;;;;6168318;22;20703;-67
2021/04/18 01:54:17;;;;;;;6.83;5.43;;;9.60;99.90;;;;;;6196915;22;20261;-69
2021/04/18 01:56:43;;;;;;;6.10;5.50;;;9.50;99.90;;;;;;6195743;22;20157;-68
2021/04/18 01:59:08;;;;;;;9.80;5.90;;;9.50;99.90;;;;;;6195036;22;20152;-67
2021/04/18 02:01:38;;;;;;;7.87;5.30;;;9.50;99.90;;;;;;6171371;22;20538;-69
2021/04/18 02:04:24;;;;;;;7.70;5.80;;;9.50;99.90;;;;;;6168285;22;20168;-69
2021/04/18 02:06:50;;;;;;;11.43;6.70;;;9.40;99.90;;;;;;6197009;23;21033;-68
2021/04/18 02:09:16;;;;;;;8.10;6.00;;;9.40;99.90;;;;;;6200113;23;20698;-69
2021/04/18 02:11:42;;;;;;;7.47;4.80;;;9.30;99.90;;;;;;6168198;22;20647;-67
2021/04/18 02:14:08;;;;;;;6.70;5.20;;;9.30;99.90;;;;;;6189023;22;20559;-69
2021/04/18 02:16:34;;;;;;;6.27;5.30;;;9.20;99.90;;;;;;6197661;22;20180;-69
2021/04/18 02:19:00;;;;;;;5.97;5.10;;;9.20;99.90;;;;;;6163790;22;20585;-69
2021/04/18 02:21:26;;;;;;;6.43;4.90;;;9.10;99.90;;;;;;6163718;23;20579;-67
2021/04/18 02:23:51;;;;;;;9.13;5.70;;;9.10;99.90;;;;;;6161749;23;20637;-68
2021/04/18 02:26:17;;;;;;;5.73;5.00;;;9.10;99.90;;;;;;6166224;22;20257;-69
2021/04/18 02:28:42;;;;;;;7.57;5.83;;;9.00;99.90;;;;;;6163268;23;20245;-68
2021/04/18 02:31:08;;;;;;;7.57;5.83;;;9.00;99.90;;;;;;6168402;23;20149;-67
2021/04/18 02:33:34;;;;;;;6.87;5.37;;;8.90;99.90;;;;;;6165929;23;20264;-68
2021/04/18 02:36:00;;;;;;;5.67;5.00;;;8.90;99.90;;;;;;6167416;22;20196;-68
2021/04/18 02:38:25;;;;;;;7.40;5.23;;;8.80;99.90;;;;;;6156883;23;20200;-68
2021/04/18 02:40:51;;;;;;;6.67;4.47;;;8.80;99.90;;;;;;6164956;23;20188;-69
2021/04/18 02:43:16;;;;;;;6.00;4.77;;;8.80;99.90;;;;;;6163310;23;20188;-69
2021/04/18 02:45:42;;;;;;;6.77;5.00;;;8.70;99.90;;;;;;6167068;22;20491;-69
2021/04/18 02:48:07;;;;;;;6.40;4.70;;;8.70;99.90;;;;;;6167769;23;20177;-68
2021/04/18 02:50:33;;;;;;;6.77;4.60;;;8.60;99.90;;;;;;6166321;23;20309;-69
2021/04/18 02:52:58;;;;;;;5.00;4.30;;;8.60;99.90;;;;;;6164743;23;20169;-69
2021/04/18 02:55:24;;;;;;;6.40;4.27;;;8.60;99.90;;;;;;6163146;22;20206;-68
2021/04/18 02:57:52;;;;;;;8.40;4.77;;;8.60;99.90;;;;;;6158839;23;20385;-68
2021/04/18 03:00:18;;;;;;;5.27;4.17;;;8.50;99.90;;;;;;6161101;23;20794;-68
2021/04/18 03:02:44;;;;;;;6.07;4.73;;;8.50;99.90;;;;;;6160941;23;20603;-67
2021/04/18 03:05:10;;;;;;;6.47;4.37;;;8.50;99.90;;;;;;6160529;22;20224;-68
2021/04/18 03:07:36;;;;;;;5.57;4.83;;;8.40;99.90;;;;;;6161795;23;20205;-68
2021/04/18 03:10:02;;;;;;;8.60;4.83;;;8.40;99.90;;;;;;6167906;23;20563;-68
2021/04/18 03:12:28;;;;;;;6.97;4.60;;;8.40;99.90;;;;;;6165563;23;20173;-67
2021/04/18 03:14:53;;;;;;;9.97;4.83;;;8.40;99.90;;;;;;6166411;22;21360;-69
2021/04/18 03:17:19;;;;;;;6.70;4.73;;;8.40;99.90;;;;;;6170200;23;20616;-69
2021/04/18 03:19:47;;;;;;;7.83;4.57;;;8.30;99.90;;;;;;6174315;23;20172;-70
2021/04/18 03:22:13;;;;;;;6.27;4.67;;;8.30;99.90;;;;;;6198469;23;20700;-68
2021/04/18 03:24:40;;;;;;;5.13;4.63;;;8.30;99.90;;;;;;6195016;22;20587;-68
2021/04/18 03:27:05;;;;;;;5.60;4.83;;;8.20;99.90;;;;;;6201246;23;20574;-69
2021/04/18 03:29:31;;;;;;;10.77;4.83;;;8.20;99.90;;;;;;6201730;23;20678;-68
2021/04/18 03:31:56;;;;;;;5.67;5.00;;;8.20;99.90;;;;;;6200059;23;20271;-68
2021/04/18 03:34:22;;;;;;;9.50;4.50;;;8.10;99.90;;;;;;6208567;22;20325;-69
2021/04/18 03:36:48;;;;;;;4.57;4.07;;;8.10;99.90;;;;;;6184282;23;20156;-68
2021/04/18 03:39:13;;;;;;;9.10;4.70;;;8.00;99.90;;;;;;6173537;23;20300;-67
2021/04/18 03:41:39;;;;;;;6.27;4.47;;;8.00;99.90;;;;;;6201743;23;20258;-68
2021/04/18 03:44:05;;;;;;;6.50;4.80;;;8.00;99.90;;;;;;6163196;22;20161;-66
2021/04/18 03:46:30;;;;;;;5.30;4.80;;;8.00;99.90;;;;;;6198816;23;20785;-69
2021/04/18 03:48:56;;;;;;;6.10;4.50;;;7.90;99.90;;;;;;6192728;23;20660;-68
2021/04/18 03:51:21;;;;;;;4.90;4.07;;;7.90;99.90;;;;;;6202129;23;20545;-69
2021/04/18 03:53:47;;;;;;;4.80;4.33;;;7.90;99.90;;;;;;6172228;23;20604;-68
2021/04/18 03:56:12;;;;;;;6.40;4.30;;;7.90;99.90;;;;;;6200045;22;20248;-68
2021/04/18 03:58:40;;;;;;;4.87;4.00;;;7.80;99.90;;;;;;6169599;23;20164;-67
2021/04/18 04:01:05;;;;;;;7.03;4.60;;;7.80;99.90;;;;;;6173346;23;20164;-68
2021/04/18 04:03:31;;;;;;;7.53;4.60;;;7.80;99.90;;;;;;6172561;23;20644;-68
2021/04/18 04:05:56;;;;;;;5.50;3.90;;;7.70;99.90;;;;;;6200609;22;20200;-68
2021/04/18 04:08:22;;;;;;;5.60;4.17;;;7.70;99.90;;;;;;6199444;23;20180;-69
2021/04/18 04:10:47;;;;;;;4.33;3.70;;;7.70;99.90;;;;;;6171450;23;20160;-67
2021/04/18 04:13:13;;;;;;;5.77;4.13;;;7.70;99.90;;;;;;6195542;23;20315;-68
2021/04/18 04:15:38;;;;;;;6.50;5.17;;;7.70;99.90;;;;;;6171200;22;20630;-68
2021/04/18 04:18:04;;;;;;;5.53;4.30;;;7.70;99.90;;;;;;6194397;23;20161;-68
2021/04/18 04:20:30;;;;;;;5.23;4.00;;;7.60;99.90;;;;;;6173760;22;20225;-66
2021/04/18 04:25:23;;;;;;;6.50;3.93;;;7.60;99.90;;;;;;6179175;22;20218;-62
2021/04/18 04:27:51;;;;;;;4.43;4.03;;;7.60;99.90;;;;;;6191639;23;20583;-63
2021/04/18 04:30:17;;;;;;;6.03;4.03;;;7.50;99.90;;;;;;6192280;23;20434;-65
2021/04/18 04:32:42;;;;;;;6.43;4.30;;;7.50;99.90;;;;;;6183593;23;20595;-64
2021/04/18 04:35:08;;;;;;;6.00;4.20;;;7.50;99.90;;;;;;6166420;22;20552;-63
2021/04/18 04:37:34;;;;;;;7.07;4.60;;;7.40;99.90;;;;;;6164856;23;20685;-62
2021/04/18 04:40:00;;;;;;;6.30;4.03;;;7.40;99.90;;;;;;6165074;22;20574;-64
2021/04/18 04:42:25;;;;;;;5.57;4.70;;;7.40;99.90;;;;;;6169604;22;20746;-64
2021/04/18 04:44:53;;;;;;;4.53;3.77;;;7.40;99.90;;;;;;6168437;22;20646;-64
2021/04/18 04:47:19;;;;;;;5.10;3.67;;;7.40;99.90;;;;;;6173290;23;20180;-63
2021/04/18 04:49:44;;;;;;;5.60;4.20;;;7.40;99.90;;;;;;6173176;22;20536;-64
2021/04/18 04:52:10;;;;;;;7.27;4.30;;;7.40;99.90;;;;;;6172597;22;20163;-65
2021/04/18 04:54:37;;;;;;;6.37;4.33;;;7.40;99.90;;;;;;6170391;22;20223;-64
2021/04/18 04:57:04;;;;;;;8.53;5.00;;;7.40;99.90;;;;;;6169539;23;20228;-65
2021/04/18 04:59:32;;;;;;;6.17;4.23;;;7.40;99.90;;;;;;6172798;23;20544;-63
2021/04/18 05:01:58;;;;;;;6.43;4.40;;;7.40;99.90;;;;;;6166636;23;20578;-63
2021/04/18 05:04:26;;;;;;;7.27;4.40;;;7.40;99.90;;;;;;6168857;22;20596;-63
2021/04/18 05:06:52;;;;;;;9.50;4.30;;;7.40;99.90;;;;;;6167568;22;20192;-64
2021/04/18 05:09:18;;;;;;;7.53;4.60;;;7.40;99.90;;;;;;6168165;23;20618;-64
2021/04/18 05:11:45;;;;;;;5.23;3.90;;;7.40;99.90;;;;;;6174475;22;20533;-64
2021/04/18 05:14:11;;;;;;;6.83;4.77;;;7.40;99.90;;;;;;6168465;22;20590;-63
2021/04/18 05:16:39;;;;;;;6.20;4.13;;;7.40;99.90;;;;;;6167464;22;20583;-65
2021/04/18 05:19:04;;;;;;;6.63;4.50;;;7.40;99.90;;;;;;6168103;23;20234;-64
2021/04/18 05:21:32;;;;;;;5.57;5.00;;;7.50;99.90;;;;;;6172400;22;20572;-65
2021/04/18 05:23:58;;;;;;;5.40;4.10;;;7.50;99.90;;;;;;6204757;22;20196;-63
2021/04/18 05:26:23;;;;;;;7.43;4.57;;;7.50;99.90;;;;;;6196410;23;20535;-63
2021/04/18 05:28:49;;;;;;;4.93;4.37;;;7.50;99.90;;;;;;6197958;23;20694;-63
2021/04/18 05:31:15;;;;;;;6.40;4.70;;;7.60;99.90;;;;;;6303004;22;20179;-62
2021/04/18 05:33:41;;;;;;;6.80;4.80;;;7.60;99.90;;;;;;6199779;23;20174;-65
2021/04/18 05:36:06;;;;;;;7.87;4.40;;;7.60;99.90;;;;;;6200907;22;20196;-63
2021/04/18 05:38:32;;;;;;;6.00;4.17;;;7.60;99.90;;;;;;6202071;23;20531;-65
2021/04/18 05:40:57;;;;;;;5.60;4.53;;;7.60;99.90;;;;;;6200853;23;20164;-64
2021/04/18 05:43:26;;;;;;;8.87;4.97;;;7.60;99.90;;;;;;6197216;23;20172;-63
2021/04/18 05:45:52;;;;;;;7.13;4.47;;;7.70;99.90;;;;;;6202521;22;20345;-63
2021/04/18 05:48:20;;;;;;;7.50;4.70;;;7.70;99.90;;;;;;6197874;23;20611;-64
2021/04/18 05:50:48;;;;;;;10.10;4.83;;;7.70;99.90;;;;;;6197472;23;21115;-64
2021/04/18 05:53:14;;;;;;;5.47;4.57;;;7.70;99.90;;;;;;6301971;22;20597;-64
2021/04/18 05:55:41;;;;;;;7.90;5.10;;;7.80;99.90;;;;;;6200048;22;20695;-64
2021/04/18 05:58:08;;;;;;;7.37;4.80;;;7.80;99.90;;;;;;6200612;23;20161;-63
2021/04/18 06:00:33;;;;;;;7.43;4.50;;;7.80;99.90;;;;;;6204552;23;20611;-64
2021/04/18 06:02:59;;;;;;;10.40;5.00;;;7.90;99.90;;;;;;6304792;22;20623;-63
2021/04/18 06:05:25;;;;;;;9.23;4.97;;;7.90;99.90;;;;;;6294279;22;20236;-64
2021/04/18 06:07:51;;;;;;;5.50;4.43;;;8.00;99.90;;;;;;6300326;22;20271;-63
2021/04/18 06:10:16;;;;;;;8.40;5.03;;;8.00;99.90;;;;;;6204318;23;20507;-65
2021/04/18 06:12:42;;;;;;;9.77;5.00;;;8.00;99.90;;;;;;6308336;22;20180;-63
2021/04/18 06:15:08;;;;;;;6.13;5.30;;;8.10;99.90;;;;;;6202466;22;20267;-64
2021/04/18 06:17:34;;;;;;;6.63;4.60;;;8.10;99.90;;;;;;6201433;23;20663;-63
2021/04/18 06:20:00;;;;;;;8.90;5.17;;;8.20;99.90;;;;;;6202128;23;20926;-63
2021/04/18 06:22:26;;;;;;;9.07;4.73;;;8.20;99.90;;;;;;6308098;22;20603;-64
2021/04/18 06:24:52;;;;;;;9.10;5.17;;;8.20;99.90;;;;;;6195822;22;20603;-64
2021/04/18 06:27:17;;;;;;;8.93;4.83;;;8.20;99.90;;;;;;6201259;22;20551;-63
2021/04/18 06:29:43;;;;;;;8.73;5.40;;;8.30;99.90;;;;;;6307596;22;20560;-64
2021/04/18 06:32:09;;;;;;;5.83;5.00;;;8.40;99.90;;;;;;6201796;23;20161;-66
2021/04/18 06:34:35;;;;;;;8.23;4.70;;;8.40;99.90;;;;;;6307036;22;20282;-63
2021/04/18 06:37:02;;;;;;;8.30;5.10;;;8.50;99.90;;;;;;6308962;22;20563;-65
2021/04/18 06:39:28;;;;;;;7.53;4.70;;;8.50;99.90;;;;;;6304620;22;20567;-63
2021/04/18 06:41:56;;;;;;;8.30;4.73;;;8.50;99.90;;;;;;6201125;23;20528;-64
2021/04/18 06:44:22;;;;;;;11.90;5.30;;;8.50;99.90;;;;;;6195929;22;20602;-64
2021/04/18 06:46:49;;;;;;;7.50;5.40;;;8.60;99.90;;;;;;6302700;22;20986;-63
2021/04/18 06:49:15;;;;;;;12.03;5.27;;;8.70;99.90;;;;;;6306835;22;20211;-63
2021/04/18 06:51:41;;;;;;;6.33;4.50;;;8.70;99.90;;;;;;6204514;23;20543;-63
2021/04/18 06:54:07;;;;;;;6.57;4.67;;;8.80;99.90;;;;;;6201976;23;20203;-64
2021/04/18 06:56:33;;;;;;;7.40;4.93;;;8.90;99.90;;;;;;6196500;22;20497;-66
2021/04/18 06:59:00;;;;;;;8.57;4.93;;;9.00;99.90;;;;;;6305225;22;20648;-63
2021/04/18 07:01:26;;;;;;;7.20;4.33;;;9.00;99.90;;;;;;6202330;23;20531;-64
2021/04/18 07:04:09;;;;;;;7.10;5.03;;;9.10;99.90;;;;;;6198628;23;20610;-63
2021/04/18 07:06:42;;;;;;;9.90;5.97;;;9.10;99.90;;;;;;6204273;23;20596;-64
2021/04/18 07:09:09;;;;;;;5.67;4.60;;;9.20;99.90;;;;;;6200924;23;20631;-63
2021/04/18 07:11:57;;;;;;;9.60;4.60;;;9.30;99.90;;;;;;6202708;23;20689;-63
2021/04/18 07:14:29;;;;;;;5.27;4.53;;;9.30;99.90;;;;;;6200644;22;20681;-64
2021/04/18 07:17:07;;;;;;;6.70;4.60;;;9.30;99.90;;;;;;6199674;23;20504;-65
2021/04/18 07:19:34;;;;;;;7.17;4.60;;;9.40;99.90;;;;;;6200865;23;21083;-64
2021/04/18 07:22:00;;;;;;;8.13;5.50;;;9.40;99.90;;;;;;6196246;23;20535;-63
2021/04/18 07:24:26;;;;;;;8.83;5.23;;;9.50;99.90;;;;;;6200412;22;20937;-63
2021/04/18 07:27:01;;;;;;;7.30;5.47;;;9.60;99.90;;;;;;6198276;23;20532;-64
2021/04/18 07:29:28;;;;;;;8.07;4.80;;;9.60;99.90;;;;;;6199146;23;20206;-63
2021/04/18 07:31:58;;;;;;;8.47;5.13;;;9.70;99.90;;;;;;6202594;23;21132;-63
2021/04/18 07:34:24;;;;;;;7.57;5.20;;;9.70;99.90;;;;;;6195572;22;20579;-64
2021/04/18 07:37:07;;;;;;;5.47;4.90;;;9.80;99.90;;;;;;6201473;23;20531;-65
2021/04/18 07:39:49;;;;;;;6.57;4.97;;;9.80;99.90;;;;;;6196157;23;21355;-64
2021/04/18 07:42:41;;;;;;;7.87;5.37;;;9.90;99.90;;;;;;6299126;22;20589;-63
2021/04/18 07:45:08;;;;;;;8.80;5.10;;;9.90;99.90;;;;;;6198509;22;20958;-64
2021/04/18 07:47:39;;;;;;;7.23;5.00;;;10.00;99.90;;;;;;6203049;23;20640;-67
2021/04/18 07:50:13;;;;;;;7.87;5.13;;;10.10;99.90;;;;;;6201389;23;20562;-64
2021/04/18 07:52:44;;;;;;;7.50;5.30;;;10.20;99.90;;;;;;6308626;22;20595;-66
2021/04/18 07:55:12;;;;;;;6.53;5.30;;;10.20;99.90;;;;;;6202842;22;20591;-64
2021/04/18 07:57:38;;;;;;;10.03;6.00;;;10.30;99.90;;;;;;6205840;23;20689;-65
2021/04/18 08:00:06;;;;;;;7.87;5.73;;;10.40;99.90;;;;;;6205956;23;20578;-65
2021/04/18 08:02:32;;;;;;;9.00;5.30;;;10.40;99.90;;;;;;6204472;23;20909;-64
2021/04/18 08:04:58;;;;;;;8.00;6.10;;;10.60;99.90;;;;;;6311662;22;20599;-65
2021/04/18 08:07:24;;;;;;;7.80;6.70;;;10.50;99.90;;;;;;6204898;23;20157;-65
2021/04/18 08:10:23;;;;;;;8.00;5.80;;;10.70;99.90;;;;;;6310693;22;20658;-65
2021/04/18 08:13:08;;;;;;;8.70;6.07;;;10.60;99.90;;;;;;6203920;23;21066;-65
2021/04/18 08:15:39;;;;;;;9.40;6.67;;;10.80;99.90;;;;;;6308163;22;20583;-65
2021/04/18 08:18:13;;;;;;;7.30;6.10;;;10.80;99.90;;;;;;6204921;23;20512;-65
2021/04/18 08:20:44;;;;;;;6.67;5.90;;;10.90;99.90;;;;;;6203969;23;20504;-66
2021/04/18 08:23:16;;;;;;;8.10;6.20;;;10.90;99.90;;;;;;6202827;23;20585;-65
2021/04/18 08:26:06;;;;;;;9.57;6.40;;;11.00;99.90;;;;;;6205238;22;20686;-65
2021/04/18 08:28:55;;;;;;;7.40;5.53;;;11.10;99.90;;;;;;6205270;23;20619;-66
2021/04/18 08:31:23;;;;;;;7.03;5.63;;;11.10;99.90;;;;;;6206168;22;20559;-65
2021/04/18 08:33:51;;;;;;;10.27;6.30;;;11.20;99.90;;;;;;6309256;22;20591;-65
2021/04/18 08:36:23;;;;;;;9.40;6.27;;;11.20;99.90;;;;;;6311611;22;20666;-65
2021/04/18 08:39:10;;;;;;;8.27;5.97;;;11.30;99.90;;;;;;6205216;23;21136;-65
2021/04/18 08:41:47;;;;;;;8.53;6.47;;;11.40;99.90;;;;;;6205821;22;20921;-65
2021/04/18 08:44:16;;;;;;;12.03;7.23;;;11.50;99.90;;;;;;6204198;22;20578;-66
2021/04/18 08:46:42;;;;;;;8.07;6.60;;;11.50;99.90;;;;;;6202565;23;20577;-65
2021/04/18 08:49:09;;;;;;;11.50;7.23;;;11.80;99.90;;;;;;6202542;23;20727;-65
2021/04/18 08:51:38;;;;;;;9.20;6.50;;;11.70;99.90;;;;;;6197178;23;20543;-63
2021/04/18 08:54:05;;;;;;;7.70;7.00;;;11.80;99.90;;;;;;6203850;23;20620;-64
2021/04/18 08:56:55;;;;;;;7.47;6.63;;;11.90;99.90;;;;;;6331973;22;21211;-64
2021/04/18 08:59:21;;;;;;;9.13;6.83;;;12.00;99.90;;;;;;6308414;22;20567;-64
2021/04/18 09:01:53;;;;;;;8.50;6.20;;;12.10;99.90;;;;;;6206360;23;20642;-62
2021/04/18 09:04:21;;;;;;;8.17;6.50;;;12.20;99.90;;;;;;6203317;22;20714;-64
2021/04/18 09:06:48;;;;;;;8.20;6.50;;;12.20;99.90;;;;;;6202195;23;20841;-64
2021/04/18 09:09:14;;;;;;;8.30;6.67;;;12.20;99.90;;;;;;6204008;23;20595;-64
2021/04/18 09:11:42;;;;;;;10.27;6.30;;;12.30;99.90;;;;;;6205851;23;20616;-65
2021/04/18 09:14:08;;;;;;;7.97;6.60;;;12.40;99.90;;;;;;6205158;23;20648;-64
2021/04/18 09:16:36;;;;;;;6.97;6.40;;;12.40;99.90;;;;;;6309092;22;20595;-64
2021/04/18 09:19:24;;;;;;;8.50;6.53;;;12.40;99.90;;;;;;6306778;22;20570;-64
2021/04/18 09:22:07;;;;;;;8.90;6.77;;;12.50;99.90;;;;;;6206838;23;21051;-64
2021/04/18 09:24:43;;;;;;;8.57;6.90;;;12.50;99.90;;;;;;6203699;22;20607;-64
2021/04/18 09:27:19;;;;;;;8.80;7.20;;;12.70;99.90;;;;;;6204665;23;20556;-64
2021/04/18 09:29:51;;;;;;;8.77;6.37;;;12.90;99.90;;;;;;6205906;23;20511;-64
2021/04/18 09:32:23;;;;;;;7.57;6.70;;;13.00;99.90;;;;;;6204273;23;20592;-65
2021/04/18 09:34:51;;;;;;;7.27;6.50;;;13.20;99.90;;;;;;6201700;22;20607;-64
2021/04/18 09:37:22;;;;;;;7.70;6.90;;;13.20;99.90;;;;;;6204331;23;20526;-64
2021/04/18 09:39:59;;;;;;;7.70;6.70;;;13.30;99.90;;;;;;6201671;23;20500;-65
2021/04/18 09:42:30;;;;;;;7.10;6.37;;;13.30;99.90;;;;;;6199422;23;20559;-64
2021/04/18 09:45:20;;;;;;;8.90;7.00;;;13.40;99.90;;;;;;6307379;22;20640;-64
2021/04/18 09:47:51;;;;;;;11.40;7.00;;;13.50;99.90;;;;;;6328591;22;20556;-65
2021/04/18 09:50:20;;;;;;;7.90;7.17;;;13.50;99.90;;;;;;6307919;22;20571;-64
2021/04/18 09:52:46;;;;;;;6.90;6.40;;;13.60;99.90;;;;;;6203626;23;20575;-64
2021/04/18 09:55:15;;;;;;;8.00;6.10;;;13.60;99.90;;;;;;6304660;22;21006;-64
2021/04/18 09:57:48;;;;;;;8.37;7.00;;;13.70;99.90;;;;;;6200516;23;20531;-63
2021/04/18 10:00:16;;;;;;;8.13;6.50;;;13.80;99.90;;;;;;6310855;22;21074;-63
2021/04/18 10:03:02;;;;;;;6.60;5.97;;;13.80;99.90;;;;;;6202893;23;20611;-63
2021/04/18 10:05:33;;;;;;;8.10;6.33;;;13.90;99.90;;;;;;6210293;22;20591;-63
2021/04/18 10:08:24;;;;;;;6.90;6.20;;;14.00;99.90;;;;;;6201914;23;20558;-63
2021/04/18 10:11:06;;;;;;;9.43;6.33;;;14.20;99.90;;;;;;6307409;22;21476;-62
2021/04/18 10:13:54;;;;;;;7.50;6.50;;;14.20;99.90;;;;;;6200550;23;20567;-61
2021/04/18 10:16:41;;;;;;;6.97;5.70;;;14.30;99.90;;;;;;6199974;22;20712;-62
2021/04/18 10:19:14;;;;;;;6.23;5.63;;;14.50;99.90;;;;;;6204176;23;20531;-62
2021/04/18 10:21:41;;;;;;;7.97;6.57;;;14.50;99.90;;;;;;6204872;23;21106;-61
2021/04/18 10:24:32;;;;;;;8.87;7.10;;;14.60;99.90;;;;;;6193822;23;20633;-72
2021/04/18 10:26:59;;;;;;;6.53;5.73;;;14.60;99.90;;;;;;6162707;23;20572;-72
2021/04/18 10:29:25;;;;;;;7.10;5.63;;;14.70;99.90;;;;;;6172251;23;20679;-71
2021/04/18 10:31:51;;;;;;;7.57;6.87;;;14.80;99.90;;;;;;6145014;23;20607;-72
2021/04/18 10:34:16;;;;;;;6.20;5.60;;;14.90;99.90;;;;;;6140189;22;20198;-72
2021/04/18 10:36:46;;;;;;;7.30;6.50;;;15.00;99.90;;;;;;6142849;23;20233;-71
2021/04/18 10:39:12;;;;;;;7.30;6.50;;;15.10;99.90;;;;;;6141846;23;20626;-71
2021/04/18 10:41:37;;;;;;;7.43;6.57;;;15.10;99.90;;;;;;6114343;23;20565;-72
2021/04/18 10:44:03;;;;;;;7.47;6.77;;;15.20;99.90;;;;;;6114210;23;20204;-72
2021/04/18 10:46:31;;;;;;;7.03;6.37;;;15.30;99.90;;;;;;6115975;22;20219;-73
2021/04/18 10:48:56;;;;;;;7.90;5.90;;;15.40;99.90;;;;;;6118574;23;20672;-72
2021/04/18 10:51:22;;;;;;;9.13;6.67;;;15.50;99.90;;;;;;6145330;23;20562;-72
2021/04/18 10:53:47;;;;;;;8.93;6.40;;;15.60;99.90;;;;;;6142457;23;20197;-72
2021/04/18 10:56:15;;;;;;;8.63;6.43;;;15.70;99.90;;;;;;6144852;22;20272;-72
2021/04/18 10:58:43;;;;;;;7.03;6.00;;;15.70;99.90;;;;;;6144336;23;20169;-72
2021/04/18 11:01:11;;;;;;;6.37;5.73;;;15.80;99.90;;;;;;6142092;23;20849;-72
2021/04/18 11:03:37;;;;;;;6.53;5.93;;;15.90;99.90;;;;;;6144543;23;21062;-73
2021/04/18 11:06:02;;;;;;;8.13;6.10;;;15.90;99.90;;;;;;6143403;22;20593;-72
2021/04/18 11:08:30;;;;;;;9.33;6.50;;;16.00;99.90;;;;;;6143861;23;20182;-72
2021/04/18 11:10:55;;;;;;;7.70;6.87;;;16.10;99.90;;;;;;6142649;23;20161;-72
2021/04/18 11:13:21;;;;;;;9.60;6.47;;;16.10;99.90;;;;;;6141832;23;20573;-72
2021/04/18 11:15:47;;;;;;;8.60;7.00;;;16.20;99.90;;;;;;6144454;22;20627;-72
2021/04/18 11:18:15;;;;;;;7.70;6.70;;;16.30;99.90;;;;;;6143376;23;20599;-72
2021/04/18 11:20:40;;;;;;;9.23;7.67;;;16.40;99.90;;;;;;6143317;23;20189;-72
2021/04/18 11:23:06;;;;;;;7.93;7.23;;;16.50;99.90;;;;;;6117332;23;21182;-72
2021/04/18 11:25:31;;;;;;;7.33;6.60;;;16.60;99.90;;;;;;6143790;22;20583;-72
2021/04/18 11:27:57;;;;;;;9.33;6.80;;;16.70;99.90;;;;;;6117970;23;20231;-72
2021/04/18 11:30:23;;;;;;;8.57;7.70;;;16.90;99.90;;;;;;6144272;23;20154;-72
2021/04/18 11:32:48;;;;;;;10.43;8.10;;;17.00;99.90;;;;;;6143390;23;20682;-72
2021/04/18 11:35:14;;;;;;;9.60;8.60;;;17.10;99.90;;;;;;6119473;22;20235;-72
2021/04/18 11:37:39;;;;;;;7.47;6.87;;;17.20;99.90;;;;;;6119162;23;20173;-72
2021/04/18 11:40:06;;;;;;;8.07;7.27;;;17.30;99.90;;;;;;6145522;23;20157;-71
2021/04/18 11:42:32;;;;;;;7.93;7.23;;;17.40;99.90;;;;;;6119480;23;20185;-72
2021/04/18 11:45:00;;;;;;;7.23;6.63;;;17.50;99.90;;;;;;6117614;23;20620;-71
2021/04/18 11:47:26;;;;;;;7.80;6.90;;;17.70;99.90;;;;;;6145349;23;20606;-71
2021/04/18 11:49:52;;;;;;;8.57;7.73;;;17.80;99.90;;;;;;6146902;23;20534;-70
2021/04/18 11:52:17;;;;;;;7.60;6.80;;;17.80;99.90;;;;;;6145461;23;20455;-72
2021/04/18 11:54:43;;;;;;;7.70;6.97;;;17.90;99.90;;;;;;6116348;22;20342;-72
2021/04/18 11:57:09;;;;;;;8.13;7.03;;;18.00;99.90;;;;;;6145679;23;20154;-72
2021/04/18 11:59:35;;;;;;;7.90;7.20;;;18.00;99.90;;;;;;6143745;23;20158;-72
2021/04/18 12:02:01;;;;;;;8.10;7.13;;;18.00;99.90;;;;;;6145826;23;20253;-71
2021/04/18 12:04:27;;;;;;;7.93;7.17;;;17.90;99.90;;;;;;6140625;22;20612;-71
2021/04/18 12:06:55;;;;;;;7.20;6.50;;;17.90;99.90;;;;;;6143634;23;20158;-71
2021/04/18 12:09:21;;;;;;;8.10;7.40;;;18.00;99.90;;;;;;6144798;23;20178;-71
2021/04/18 12:11:46;;;;;;;8.13;7.33;;;18.10;99.90;;;;;;6144710;23;20567;-71
2021/04/18 12:14:14;;;;;;;8.50;7.70;;;18.20;99.90;;;;;;6117411;22;20517;-72
2021/04/18 12:16:45;;;;;;;8.90;7.23;;;18.20;99.90;;;;;;6152838;23;20161;-72
2021/04/18 12:19:11;;;;;;;7.90;7.00;;;18.20;99.90;;;;;;6164497;23;20537;-72
2021/04/18 12:21:37;;;;;;;8.20;7.40;;;18.40;99.90;;;;;;6151851;23;20540;-72
2021/04/18 12:24:04;;;;;;;8.00;7.30;;;18.50;99.90;;;;;;6143873;22;20177;-72
2021/04/18 12:26:29;;;;;;;7.40;6.10;;;18.60;99.90;;;;;;6118265;23;20668;-71
2021/04/18 12:28:55;;;;;;;6.97;6.33;;;18.80;99.90;;;;;;6117002;23;20648;-73
2021/04/18 12:31:21;;;;;;;7.20;6.53;;;18.90;99.90;;;;;;6128514;23;20166;-71
2021/04/18 12:33:46;;;;;;;7.07;6.47;;;18.90;99.90;;;;;;6136777;23;20648;-71
2021/04/18 12:36:14;;;;;;;7.33;6.40;;;19.00;99.90;;;;;;6141665;22;20201;-71
2021/04/18 12:38:40;;;;;;;7.53;6.83;;;19.00;99.90;;;;;;6118263;23;20632;-71
2021/04/18 12:41:06;;;;;;;7.03;6.33;;;19.10;99.90;;;;;;6142033;23;20620;-71
2021/04/18 12:43:32;;;;;;;8.80;7.70;;;19.20;99.90;;;;;;6138479;23;20176;-71
2021/04/18 12:45:59;;;;;;;7.57;6.87;;;19.20;99.90;;;;;;6137122;22;20657;-71
2021/04/18 12:48:25;;;;;;;7.30;6.67;;;19.30;99.90;;;;;;6141140;23;20577;-72
2021/04/18 12:50:53;;;;;;;6.83;6.17;;;19.40;99.90;;;;;;6139128;23;21088;-72
2021/04/18 12:53:19;;;;;;;6.90;6.33;;;19.50;99.90;;;;;;6141938;23;20243;-72
2021/04/18 12:55:44;;;;;;;7.00;6.40;;;19.60;99.90;;;;;;6139918;22;20950;-72
2021/04/18 12:58:12;;;;;;;8.83;6.50;;;19.80;99.90;;;;;;6112658;23;20178;-71
2021/04/18 13:00:38;;;;;;;8.23;6.40;;;20.00;99.90;;;;;;6141472;23;20321;-71